Time;durP1;ratioP1;P1;durP2;ratioP2;P2;SDS_P1;SDS_P2;PMS_P1;PMS_P2;Temp;Humidity;BMP_temperature;BMP_pressure;BME280_temperature;BME280_humidity;BME280_pressure;Samples;Min_cycle;Max_cycle;Signal;HPM_P1;HPM_P2
2021/10/07 00:01:19;;;;;;;7.30;1.42;;;;;17.60;100795.00;;;;4875027;29;20041;-77
2021/10/07 00:03:53;;;;;;;8.75;1.98;;;;;17.50;100819.00;;;;4875306;29;20151;-76
2021/10/07 00:06:22;;;;;;;13.10;2.80;;;;;17.70;100819.00;;;;4874024;29;20063;-77
2021/10/07 00:08:52;;;;;;;10.65;1.90;;;;;17.60;100810.00;;;;4875103;29;20045;-78
2021/10/07 00:11:21;;;;;;;6.50;1.63;;;;;17.50;100831.00;;;;4874537;29;20060;-76
2021/10/07 00:13:51;;;;;;;3.83;1.27;;;;;17.30;100846.00;;;;4875189;29;20057;-78
2021/10/07 00:16:20;;;;;;;6.32;1.55;;;;;17.20;100845.00;;;;4874980;29;20053;-77
2021/10/07 00:18:52;;;;;;;7.50;1.52;;;;;17.20;100832.00;;;;4875367;29;20067;-78
2021/10/07 00:21:21;;;;;;;9.13;1.58;;;;;17.00;100824.00;;;;4875490;29;20574;-77
2021/10/07 00:24:11;;;;;;;3.78;1.45;;;;;16.80;100816.00;;;;4875279;29;20048;-77
2021/10/07 00:26:46;;;;;;;5.78;1.70;;;;;16.60;100828.00;;;;4875120;29;20041;-77
2021/10/07 00:31:50;;;;;;;4.78;1.40;;;;;16.30;100816.00;;;;4874694;29;20108;-77
2021/10/07 00:39:35;;;;;;;7.05;1.88;;;;;16.00;100832.00;;;;4875491;29;20045;-77
2021/10/07 00:42:05;;;;;;;6.35;1.83;;;;;15.80;100837.00;;;;4876786;29;20057;-78
2021/10/07 00:44:35;;;;;;;5.72;1.80;;;;;15.70;100844.00;;;;4875720;29;20064;-78
2021/10/07 00:47:06;;;;;;;8.25;1.60;;;;;15.50;100822.00;;;;4872205;29;20506;-76
2021/10/07 00:49:38;;;;;;;5.57;1.50;;;;;15.30;100827.00;;;;4872970;29;20049;-78
2021/10/07 00:52:15;;;;;;;8.68;1.60;;;;;15.20;100832.00;;;;4874493;29;20041;-76
2021/10/07 00:54:52;;;;;;;9.95;1.67;;;;;15.20;100845.00;;;;4875101;29;20049;-76
2021/10/07 00:57:23;;;;;;;5.45;1.70;;;;;15.10;100846.00;;;;4874620;29;20097;-76
2021/10/07 00:59:53;;;;;;;8.25;1.60;;;;;15.10;100860.00;;;;4874726;29;20628;-76
2021/10/07 01:02:22;;;;;;;6.35;1.50;;;;;15.10;100871.00;;;;4874086;29;20528;-76
2021/10/07 01:04:53;;;;;;;7.72;1.98;;;;;15.20;100895.00;;;;4874237;29;20409;-76
2021/10/07 01:07:22;;;;;;;10.65;1.80;;;;;15.40;100901.00;;;;4874181;29;20057;-76
2021/10/07 01:09:52;;;;;;;9.75;1.85;;;;;15.40;100889.00;;;;4874694;29;20044;-77
2021/10/07 01:12:21;;;;;;;4.13;1.88;;;;;15.40;100891.00;;;;4873645;29;20049;-77
2021/10/07 01:14:52;;;;;;;5.53;2.03;;;;;15.40;100912.00;;;;4874370;29;20055;-79
2021/10/07 01:17:25;;;;;;;3.08;1.52;;;;;15.30;100901.00;;;;4874692;29;20427;-76
2021/10/07 01:19:58;;;;;;;7.97;1.63;;;;;15.30;100906.00;;;;4874190;29;20049;-77
2021/10/07 01:22:29;;;;;;;7.88;1.80;;;;;15.30;100894.00;;;;4874356;29;20048;-76
2021/10/07 01:25:00;;;;;;;4.07;1.58;;;;;15.30;100913.00;;;;4873963;29;20051;-75
2021/10/07 01:27:31;;;;;;;7.65;1.38;;;;;15.50;100925.00;;;;4872175;29;20045;-76
2021/10/07 01:30:08;;;;;;;4.38;1.63;;;;;15.60;100912.00;;;;4873406;29;20044;-77
2021/10/07 01:32:40;;;;;;;7.45;1.95;;;;;15.60;100909.00;;;;4874141;29;20232;-76
2021/10/07 01:35:12;;;;;;;8.82;1.70;;;;;15.60;100907.00;;;;4874145;29;20441;-76
2021/10/07 01:37:41;;;;;;;;;;;;;15.50;100920.00;;;;4874467;29;20097;-76
2021/10/07 01:40:11;;;;;;;2.78;1.50;;;;;15.70;100920.00;;;;4874308;29;19934;-76
2021/10/07 01:42:42;;;;;;;4.90;1.50;;;;;15.80;100922.00;;;;4873115;29;20172;-76
2021/10/07 01:45:17;;;;;;;6.72;1.42;;;;;15.80;100949.00;;;;4874130;29;20049;-75
2021/10/07 01:47:47;;;;;;;3.58;1.23;;;;;15.80;100947.00;;;;4873567;29;20045;-76
2021/10/07 01:50:16;;;;;;;9.98;1.95;;;;;15.80;100940.00;;;;4873421;29;20053;-76
2021/10/07 01:52:46;;;;;;;6.13;1.65;;;;;15.80;100935.00;;;;4873755;29;20053;-76
2021/10/07 01:55:15;;;;;;;9.68;1.52;;;;;15.80;100928.00;;;;4873105;29;20052;-76
2021/10/07 01:57:45;;;;;;;5.20;1.63;;;;;15.70;100935.00;;;;4873473;29;20053;-75
2021/10/07 02:00:15;;;;;;;9.57;1.52;;;;;15.60;100932.00;;;;4874119;29;20493;-76
2021/10/07 02:02:44;;;;;;;4.00;1.70;;;;;15.60;100939.00;;;;4872981;29;20064;-76
2021/10/07 02:05:14;;;;;;;7.35;1.67;;;;;15.70;100925.00;;;;4873765;29;20071;-75
2021/10/07 02:07:44;;;;;;;6.75;1.50;;;;;15.70;100941.00;;;;4872980;29;20045;-77
2021/10/07 02:10:17;;;;;;;7.07;1.98;;;;;15.70;100943.00;;;;4873641;29;20104;-75
2021/10/07 02:12:49;;;;;;;7.78;1.65;;;;;15.80;100950.00;;;;4873705;29;20105;-76
2021/10/07 02:15:20;;;;;;;5.53;1.52;;;;;15.80;100941.00;;;;4873422;29;20618;-77
2021/10/07 02:17:49;;;;;;;6.40;1.40;;;;;15.80;100943.00;;;;4873000;29;21084;-76
2021/10/07 02:20:19;;;;;;;10.55;1.38;;;;;15.90;100936.00;;;;4872917;29;20132;-75
2021/10/07 02:22:49;;;;;;;5.65;1.38;;;;;15.90;100944.00;;;;4873146;29;20144;-74
2021/10/07 02:25:18;;;;;;;9.60;1.95;;;;;15.90;100944.00;;;;4872479;29;20274;-76
2021/10/07 02:27:48;;;;;;;10.15;2.00;;;;;15.90;100936.00;;;;4872940;29;20532;-76
2021/10/07 02:30:18;;;;;;;7.25;1.50;;;;;15.90;100948.00;;;;4873258;29;20643;-76
2021/10/07 02:32:48;;;;;;;10.93;1.90;;;;;15.90;100956.00;;;;4873434;29;20148;-76
2021/10/07 02:35:17;;;;;;;12.57;2.20;;;;;15.90;100957.00;;;;4872965;29;20297;-77
2021/10/07 02:37:48;;;;;;;10.05;2.17;;;;;15.90;100948.00;;;;4873657;29;20442;-76
2021/10/07 02:40:18;;;;;;;7.82;2.03;;;;;15.80;100941.00;;;;4873159;29;20509;-77
2021/10/07 02:42:48;;;;;;;11.93;2.05;;;;;15.80;100956.00;;;;4872883;29;20113;-76
2021/10/07 02:45:19;;;;;;;10.20;2.05;;;;;15.80;100945.00;;;;4873013;29;20048;-77
2021/10/07 02:47:51;;;;;;;12.15;2.05;;;;;15.80;100953.00;;;;4872905;29;20044;-76
2021/10/07 02:50:22;;;;;;;9.48;1.80;;;;;15.70;100940.00;;;;4873787;29;20136;-78
2021/10/07 02:52:52;;;;;;;13.13;1.95;;;;;15.80;100945.00;;;;4873092;29;20069;-75
2021/10/07 02:55:21;;;;;;;23.80;3.08;;;;;15.80;100943.00;;;;4872660;29;20045;-77
2021/10/07 02:57:51;;;;;;;12.38;2.65;;;;;15.70;100959.00;;;;4872050;29;20057;-75
2021/10/07 03:00:20;;;;;;;17.23;3.55;;;;;15.60;100951.00;;;;4872614;29;20064;-75
2021/10/07 03:02:50;;;;;;;15.45;3.45;;;;;15.60;100955.00;;;;4872420;29;20089;-77
2021/10/07 03:05:20;;;;;;;23.35;3.35;;;;;15.50;100943.00;;;;4873332;29;20091;-76
2021/10/07 03:07:49;;;;;;;15.52;3.20;;;;;15.50;100952.00;;;;4872546;29;20081;-76
2021/10/07 03:10:20;;;;;;;12.80;3.47;;;;;15.40;100943.00;;;;4871224;29;20147;-75
2021/10/07 03:12:50;;;;;;;13.38;2.85;;;;;15.40;100936.00;;;;4872391;29;20081;-76
2021/10/07 03:15:19;;;;;;;15.40;3.42;;;;;15.40;100939.00;;;;4872711;29;20128;-76
2021/10/07 03:17:49;;;;;;;23.50;4.28;;;;;15.30;100946.00;;;;4873185;29;20056;-77
2021/10/07 03:20:18;;;;;;;17.90;3.65;;;;;15.30;100942.00;;;;4872513;29;20053;-77
2021/10/07 03:22:48;;;;;;;17.58;3.38;;;;;15.30;100930.00;;;;4873037;29;20132;-76
2021/10/07 03:25:18;;;;;;;19.45;3.50;;;;;15.20;100936.00;;;;4872972;29;20115;-76
2021/10/07 03:27:47;;;;;;;21.23;3.72;;;;;15.20;100934.00;;;;4874021;29;20053;-75
2021/10/07 03:30:16;;;;;;;17.40;3.60;;;;;15.20;100929.00;;;;4873505;29;20053;-76
2021/10/07 03:32:46;;;;;;;14.35;3.55;;;;;15.20;100935.00;;;;4872413;29;20098;-76
2021/10/07 03:35:15;;;;;;;21.55;3.60;;;;;15.10;100943.00;;;;4872951;29;20041;-77
2021/10/07 03:37:45;;;;;;;18.75;3.92;;;;;15.10;100931.00;;;;4875994;29;20402;-78
2021/10/07 03:40:14;;;;;;;15.88;3.28;;;;;15.00;100941.00;;;;4876049;29;20053;-76
2021/10/07 03:42:44;;;;;;;22.58;3.42;;;;;15.00;100943.00;;;;4876032;29;20513;-76
2021/10/07 03:45:18;;;;;;;21.10;4.32;;;;;15.00;100950.00;;;;4876474;29;20045;-77
2021/10/07 03:47:47;;;;;;;19.20;3.70;;;;;14.90;100941.00;;;;4875155;29;20077;-76
2021/10/07 03:50:17;;;;;;;18.73;3.85;;;;;14.90;100928.00;;;;4875690;29;20569;-76
2021/10/07 03:52:46;;;;;;;24.40;4.13;;;;;14.80;100949.00;;;;4876205;29;20057;-77
2021/10/07 03:55:16;;;;;;;20.02;4.50;;;;;14.80;100945.00;;;;4876434;29;20132;-77
2021/10/07 03:57:45;;;;;;;17.85;4.28;;;;;14.80;100934.00;;;;4876390;29;20045;-77
2021/10/07 04:00:16;;;;;;;20.73;4.03;;;;;14.70;100950.00;;;;4875575;29;20063;-76
2021/10/07 04:02:46;;;;;;;19.73;3.53;;;;;14.70;100939.00;;;;4876007;29;20057;-77
2021/10/07 04:05:15;;;;;;;20.35;3.67;;;;;14.60;100961.00;;;;4876077;29;20055;-78
2021/10/07 04:07:45;;;;;;;20.58;3.58;;;;;14.60;100953.00;;;;4875451;29;20052;-76
2021/10/07 04:10:14;;;;;;;25.25;4.50;;;;;14.60;100954.00;;;;4875359;29;20156;-75
2021/10/07 04:12:44;;;;;;;21.75;3.30;;;;;14.50;100957.00;;;;4875616;29;20132;-76
2021/10/07 04:15:20;;;;;;;25.75;4.88;;;;;14.50;100959.00;;;;4875859;29;20553;-77
2021/10/07 04:17:50;;;;;;;33.33;4.45;;;;;14.50;100945.00;;;;4878412;29;20061;-78
2021/10/07 04:20:19;;;;;;;21.67;4.03;;;;;14.40;100940.00;;;;4875929;29;20055;-77
2021/10/07 04:22:49;;;;;;;19.60;3.92;;;;;14.30;100956.00;;;;4875953;29;20060;-77
2021/10/07 04:25:19;;;;;;;21.13;3.83;;;;;14.20;100941.00;;;;4874772;29;20037;-76
2021/10/07 04:27:55;;;;;;;23.15;4.72;;;;;14.10;100944.00;;;;4875509;29;20493;-77
2021/10/07 04:30:26;;;;;;;8.38;5.00;;;;;14.00;100941.00;;;;4875613;29;20041;-77
2021/10/07 04:32:55;;;;;;;19.55;3.88;;;;;13.80;100941.00;;;;4874838;29;20132;-77
2021/10/07 04:35:26;;;;;;;23.23;4.68;;;;;13.70;100939.00;;;;4875108;29;20077;-76
2021/10/07 04:37:56;;;;;;;17.63;3.40;;;;;13.60;100924.00;;;;4875403;29;20051;-76
2021/10/07 04:40:27;;;;;;;22.17;3.95;;;;;13.60;100933.00;;;;4875521;29;20053;-77
2021/10/07 04:42:57;;;;;;;26.55;4.38;;;;;13.60;100915.00;;;;4875561;29;20071;-76
2021/10/07 04:45:27;;;;;;;28.85;15.13;;;;;13.70;100929.00;;;;4875013;29;20454;-76
2021/10/07 04:47:57;;;;;;;18.65;4.85;;;;;13.70;100916.00;;;;4873685;29;20458;-77
2021/10/07 04:50:27;;;;;;;20.42;7.53;;;;;13.80;100922.00;;;;4875279;29;20061;-76
2021/10/07 04:52:56;;;;;;;23.30;4.03;;;;;13.80;100923.00;;;;4874701;29;20139;-78
2021/10/07 04:55:26;;;;;;;16.95;4.15;;;;;13.90;100917.00;;;;4873704;29;20057;-76
2021/10/07 04:57:55;;;;;;;19.92;4.43;;;;;13.90;100903.00;;;;4874744;29;20052;-76
2021/10/07 05:00:25;;;;;;;16.15;6.68;;;;;13.80;100907.00;;;;4874430;29;20052;-77
2021/10/07 05:02:57;;;;;;;110.45;39.35;;;;;13.80;100902.00;;;;4874517;29;20072;-77
2021/10/07 05:05:28;;;;;;;24.67;4.60;;;;;13.80;100898.00;;;;4874962;29;20104;-77
2021/10/07 05:07:57;;;;;;;18.25;5.90;;;;;13.80;100885.00;;;;4874949;29;20056;-77
2021/10/07 05:10:27;;;;;;;113.32;33.13;;;;;13.80;100889.00;;;;4875082;29;20539;-78
2021/10/07 05:12:56;;;;;;;114.35;95.22;;;;;13.80;100878.00;;;;4874355;29;20049;-76
2021/10/07 05:15:26;;;;;;;21.90;4.28;;;;;13.80;100883.00;;;;4874778;29;20081;-77
2021/10/07 05:17:55;;;;;;;31.83;5.18;;;;;13.80;100880.00;;;;4874476;29;20056;-76
2021/10/07 05:20:25;;;;;;;24.88;4.32;;;;;13.80;100874.00;;;;4874409;29;20052;-77
2021/10/07 05:22:54;;;;;;;24.00;4.63;;;;;13.80;100864.00;;;;4874224;29;20524;-77
2021/10/07 05:25:24;;;;;;;22.90;4.40;;;;;13.80;100878.00;;;;4872954;29;20057;-78
2021/10/07 05:27:53;;;;;;;21.15;4.70;;;;;13.70;100864.00;;;;4874554;29;20055;-76
2021/10/07 05:30:23;;;;;;;19.55;3.78;;;;;13.70;100875.00;;;;4874596;29;20049;-77
2021/10/07 05:32:52;;;;;;;30.45;4.38;;;;;13.70;100862.00;;;;4874291;29;20047;-76
2021/10/07 05:35:22;;;;;;;19.83;3.50;;;;;13.70;100868.00;;;;4874011;29;20132;-75
2021/10/07 05:37:51;;;;;;;23.85;4.10;;;;;13.60;100848.00;;;;4872726;29;20509;-76
2021/10/07 05:40:20;;;;;;;28.75;4.15;;;;;13.60;100868.00;;;;4873653;29;20061;-76
2021/10/07 05:42:50;;;;;;;26.08;3.75;;;;;13.50;100862.00;;;;4873791;29;20049;-77
2021/10/07 05:45:19;;;;;;;23.52;4.07;;;;;13.50;100860.00;;;;4873643;29;20101;-76
2021/10/07 05:47:48;;;;;;;30.08;4.07;;;;;13.40;100864.00;;;;4873532;29;20049;-76
2021/10/07 05:50:18;;;;;;;31.50;4.05;;;;;13.20;100862.00;;;;4873605;29;20052;-76
2021/10/07 05:52:47;;;;;;;27.75;4.75;;;;;13.10;100872.00;;;;4873685;29;20044;-76
2021/10/07 05:55:20;;;;;;;18.42;4.82;;;;;13.00;100875.00;;;;4874217;29;20045;-78
2021/10/07 05:57:49;;;;;;;23.00;3.63;;;;;12.90;100884.00;;;;4873401;29;20053;-76
2021/10/07 06:00:20;;;;;;;26.35;4.75;;;;;12.80;100868.00;;;;4873275;29;20164;-76
2021/10/07 06:02:50;;;;;;;25.55;4.07;;;;;12.70;100868.00;;;;4871667;29;21124;-76
2021/10/07 06:05:19;;;;;;;26.40;4.10;;;;;12.60;100870.00;;;;4873552;29;20100;-77
2021/10/07 06:07:49;;;;;;;25.60;3.97;;;;;12.60;100862.00;;;;4873325;29;20052;-77
2021/10/07 06:10:19;;;;;;;18.13;3.97;;;;;12.60;100859.00;;;;4874606;29;20056;-77
2021/10/07 06:12:48;;;;;;;21.17;3.70;;;;;12.60;100862.00;;;;4873896;29;20041;-76
2021/10/07 06:15:17;;;;;;;25.55;4.03;;;;;12.70;100848.00;;;;4873681;29;20200;-76
2021/10/07 06:17:48;;;;;;;26.10;4.53;;;;;12.70;100867.00;;;;4873258;29;20172;-77
2021/10/07 06:20:39;;;;;;;36.38;5.28;;;;;12.80;100872.00;;;;4873614;29;20049;-77
2021/10/07 06:23:08;;;;;;;21.52;4.05;;;;;12.80;100879.00;;;;4873263;29;20454;-76
2021/10/07 06:25:38;;;;;;;30.73;5.05;;;;;12.80;100900.00;;;;4873002;29;20596;-76
2021/10/07 06:28:08;;;;;;;25.30;4.40;;;;;12.90;100875.00;;;;4872662;29;20045;-76
2021/10/07 06:30:38;;;;;;;16.95;3.53;;;;;12.90;100881.00;;;;4873226;29;20053;-76
2021/10/07 06:33:07;;;;;;;25.48;4.50;;;;;12.90;100873.00;;;;4873109;29;20429;-77
2021/10/07 06:35:37;;;;;;;20.67;4.25;;;;;12.90;100876.00;;;;4873204;29;20675;-77
2021/10/07 06:38:07;;;;;;;24.80;4.10;;;;;12.90;100871.00;;;;4872644;29;20091;-77
2021/10/07 06:40:37;;;;;;;27.92;4.93;;;;;12.90;100872.00;;;;4872590;29;20053;-76
2021/10/07 06:43:06;;;;;;;20.48;3.97;;;;;12.80;100876.00;;;;4873316;29;20458;-75
2021/10/07 06:45:36;;;;;;;24.30;4.40;;;;;12.80;100892.00;;;;4872645;29;20041;-76
2021/10/07 06:48:05;;;;;;;23.25;4.03;;;;;12.70;100884.00;;;;4873421;29;20410;-75
2021/10/07 06:50:35;;;;;;;26.58;4.18;;;;;12.60;100867.00;;;;4873764;29;20053;-77
2021/10/07 06:53:04;;;;;;;21.88;3.83;;;;;12.50;100879.00;;;;4872625;29;20041;-76
2021/10/07 06:55:34;;;;;;;26.90;3.58;;;;;12.50;100885.00;;;;4872863;29;20132;-76
2021/10/07 06:58:04;;;;;;;29.40;4.68;;;;;12.40;100877.00;;;;4872824;29;20097;-76
2021/10/07 07:00:40;;;;;;;21.05;3.85;;;;;12.40;100891.00;;;;4872783;29;20473;-77
2021/10/07 07:03:09;;;;;;;33.70;4.10;;;;;12.30;100888.00;;;;4872426;29;20454;-76
2021/10/07 07:05:39;;;;;;;19.58;3.75;;;;;12.30;100884.00;;;;4871031;29;20060;-77
2021/10/07 07:08:08;;;;;;;20.55;4.25;;;;;12.30;100878.00;;;;4872844;29;20501;-76
2021/10/07 07:10:38;;;;;;;25.90;4.45;;;;;12.30;100868.00;;;;4872986;29;20478;-77
2021/10/07 07:13:08;;;;;;;18.58;3.10;;;;;12.30;100888.00;;;;4876833;29;20045;-77
2021/10/07 07:15:37;;;;;;;20.73;3.35;;;;;12.30;100864.00;;;;4877158;29;20049;-75
2021/10/07 07:18:06;;;;;;;17.98;3.70;;;;;12.20;100881.00;;;;4875969;29;20160;-76
2021/10/07 07:20:36;;;;;;;18.92;3.83;;;;;12.20;100879.00;;;;4876482;29;20056;-77
2021/10/07 07:23:10;;;;;;;19.73;3.53;;;;;12.20;100866.00;;;;4876855;29;20116;-76
2021/10/07 07:25:40;;;;;;;22.58;3.22;;;;;12.20;100865.00;;;;4876525;29;20043;-76
2021/10/07 07:28:10;;;;;;;17.77;3.38;;;;;12.10;100855.00;;;;4876532;29;20458;-76
2021/10/07 07:30:40;;;;;;;22.65;3.97;;;;;12.00;100862.00;;;;4875872;29;20113;-77
2021/10/07 07:33:09;;;;;;;21.92;3.70;;;;;11.90;100877.00;;;;4876246;29;20052;-76
2021/10/07 07:35:39;;;;;;;23.10;3.90;;;;;11.80;100863.00;;;;4876461;29;20049;-77
2021/10/07 07:38:08;;;;;;;23.42;3.70;;;;;11.70;100870.00;;;;4875749;29;20052;-76
2021/10/07 07:40:38;;;;;;;21.58;3.50;;;;;11.60;100867.00;;;;4875814;29;20057;-75
2021/10/07 07:43:07;;;;;;;16.45;3.28;;;;;11.50;100871.00;;;;4876114;29;20052;-76
2021/10/07 07:45:37;;;;;;;22.80;3.72;;;;;11.40;100886.00;;;;4876223;29;20113;-76
2021/10/07 07:48:06;;;;;;;16.42;2.88;;;;;11.30;100880.00;;;;4875751;29;20049;-76
2021/10/07 07:50:36;;;;;;;23.13;4.03;;;;;11.20;100880.00;;;;4875739;29;20630;-76
2021/10/07 07:53:05;;;;;;;20.90;3.78;;;;;11.10;100871.00;;;;4875467;29;20052;-76
2021/10/07 07:55:35;;;;;;;21.88;3.42;;;;;11.00;100878.00;;;;4875309;29;20454;-77
2021/10/07 07:58:05;;;;;;;20.05;2.85;;;;;10.80;100874.00;;;;4875686;29;20045;-76
2021/10/07 08:00:34;;;;;;;36.15;5.70;;;;;10.80;100882.00;;;;4875825;29;20060;-76
2021/10/07 08:03:04;;;;;;;27.50;4.47;;;;;10.70;100880.00;;;;4875332;29;20069;-76
2021/10/07 08:05:33;;;;;;;19.17;3.03;;;;;10.70;100883.00;;;;4875682;29;20049;-76
2021/10/07 08:08:03;;;;;;;21.25;3.58;;;;;10.70;100887.00;;;;4875477;29;20520;-77
2021/10/07 08:10:35;;;;;;;18.85;3.97;;;;;10.70;100881.00;;;;4875858;29;20444;-76
2021/10/07 08:13:04;;;;;;;17.77;3.25;;;;;10.60;100878.00;;;;4875675;29;20045;-76
2021/10/07 08:15:34;;;;;;;25.77;4.07;;;;;10.50;100884.00;;;;4875544;29;20462;-77
2021/10/07 08:18:03;;;;;;;23.52;4.25;;;;;10.40;100896.00;;;;4875572;29;20505;-77
2021/10/07 08:20:33;;;;;;;15.00;3.08;;;;;10.30;100878.00;;;;4875098;29;20059;-76
2021/10/07 08:23:03;;;;;;;23.52;3.55;;;;;10.20;100889.00;;;;4875427;29;20458;-76
2021/10/07 08:25:32;;;;;;;20.90;3.90;;;;;10.20;100903.00;;;;4875306;29;20509;-77
2021/10/07 08:28:01;;;;;;;17.00;3.33;;;;;10.20;100882.00;;;;4873645;29;20132;-75
2021/10/07 08:30:31;;;;;;;19.98;3.20;;;;;10.20;100886.00;;;;4875411;29;20053;-76
2021/10/07 08:33:01;;;;;;;27.35;4.03;;;;;10.20;100891.00;;;;4873834;29;20072;-76
2021/10/07 08:35:33;;;;;;;18.98;3.50;;;;;10.20;100904.00;;;;4875920;29;20045;-75
2021/10/07 08:38:02;;;;;;;19.88;3.35;;;;;10.20;100890.00;;;;4875159;29;20136;-76
2021/10/07 08:40:32;;;;;;;17.60;3.45;;;;;10.20;100886.00;;;;4875290;29;20053;-77
2021/10/07 08:43:02;;;;;;;19.95;3.80;;;;;10.20;100905.00;;;;4875239;29;20477;-76
2021/10/07 08:45:31;;;;;;;28.30;3.42;;;;;10.20;100904.00;;;;4874105;29;20454;-76
2021/10/07 08:48:01;;;;;;;19.52;3.28;;;;;10.30;100918.00;;;;4874921;29;20052;-76
2021/10/07 08:50:30;;;;;;;20.23;3.25;;;;;10.30;100924.00;;;;4875811;29;20053;-76
2021/10/07 08:53:00;;;;;;;23.20;3.53;;;;;10.10;100931.00;;;;4876469;29;20101;-76
2021/10/07 08:55:30;;;;;;;16.15;3.22;;;;;10.10;100926.00;;;;4875036;29;20053;-77
2021/10/07 08:58:00;;;;;;;16.15;3.38;;;;;10.00;100925.00;;;;4874264;29;20051;-77
2021/10/07 09:00:29;;;;;;;14.70;3.17;;;;;10.00;100915.00;;;;4875392;29;20056;-76
2021/10/07 09:03:17;;;;;;;19.00;3.00;;;;;9.90;100922.00;;;;4874612;29;20089;-76
2021/10/07 09:05:48;;;;;;;23.00;3.80;;;;;9.90;100929.00;;;;4874573;29;20540;-77
2021/10/07 09:08:17;;;;;;;25.90;3.63;;;;;9.80;100946.00;;;;4874147;29;20080;-75
2021/10/07 09:10:57;;;;;;;21.63;3.30;;;;;9.80;100948.00;;;;4874441;29;20053;-77
2021/10/07 09:13:27;;;;;;;26.63;3.23;;;;;9.90;100937.00;;;;4874123;29;20045;-77
2021/10/07 09:16:00;;;;;;;20.75;4.00;;;;;9.90;100952.00;;;;4874491;29;20084;-78
2021/10/07 09:18:32;;;;;;;12.35;2.78;;;;;10.00;100957.00;;;;4874449;29;20467;-77
2021/10/07 09:21:01;;;;;;;21.60;3.67;;;;;10.00;100944.00;;;;4872749;29;20561;-77
2021/10/07 09:23:34;;;;;;;25.63;3.20;;;;;10.10;100975.00;;;;4874258;29;20049;-77
2021/10/07 09:26:11;;;;;;;26.85;3.92;;;;;10.20;100974.00;;;;4874464;29;20055;-76
2021/10/07 09:29:01;;;;;;;20.00;3.80;;;;;10.20;100978.00;;;;4873692;29;20057;-77
2021/10/07 09:31:34;;;;;;;26.50;4.68;;;;;10.30;100975.00;;;;4874044;29;20101;-77
2021/10/07 09:34:06;;;;;;;22.90;3.60;;;;;10.50;100964.00;;;;4873938;29;20053;-77
2021/10/07 09:36:36;;;;;;;;;;;;;10.70;100985.00;;;;4872831;29;20060;-76
2021/10/07 09:39:07;;;;;;;28.23;3.60;;;;;10.80;100970.00;;;;4873554;29;19927;-76
2021/10/07 09:41:37;;;;;;;33.88;3.60;;;;;11.00;100988.00;;;;4874171;29;20557;-77
2021/10/07 09:44:08;;;;;;;25.63;3.75;;;;;11.20;100981.00;;;;4873622;29;20052;-76
2021/10/07 09:46:46;;;;;;;22.17;3.22;;;;;11.40;101000.00;;;;4874061;29;20037;-76
2021/10/07 09:49:18;;;;;;;21.35;3.83;;;;;11.60;100993.00;;;;4874793;29;20045;-76
2021/10/07 09:51:54;;;;;;;23.25;3.78;;;;;11.90;100993.00;;;;4873005;29;20053;-75
2021/10/07 09:54:31;;;;;;;24.83;3.17;;;;;11.90;100987.00;;;;4873434;29;20049;-76
2021/10/07 09:57:02;;;;;;;24.40;4.28;;;;;12.00;100990.00;;;;4873390;29;20041;-76
2021/10/07 09:59:33;;;;;;;28.63;3.88;;;;;12.00;100985.00;;;;4874113;29;20092;-77
2021/10/07 10:02:03;;;;;;;30.02;3.78;;;;;12.30;100987.00;;;;4873541;29;20100;-76
2021/10/07 10:04:33;;;;;;;21.58;3.45;;;;;12.40;100992.00;;;;4873221;29;20577;-76
2021/10/07 10:07:04;;;;;;;24.95;3.90;;;;;12.30;101009.00;;;;4873288;29;20057;-76
2021/10/07 10:09:33;;;;;;;37.35;3.95;;;;;12.20;101002.00;;;;4873626;29;20507;-77
2021/10/07 10:12:03;;;;;;;25.38;3.83;;;;;12.80;100974.00;;;;4874182;29;20063;-78
2021/10/07 10:14:34;;;;;;;29.20;3.97;;;;;15.20;100829.00;;;;4873274;29;20088;-75
2021/10/07 10:17:03;;;;;;;31.23;4.03;;;;;16.40;100975.00;;;;4871606;29;20534;-76
2021/10/07 10:19:33;;;;;;;33.22;4.13;;;;;14.00;101021.00;;;;4872866;29;20312;-78
2021/10/07 10:22:03;;;;;;;26.30;3.88;;;;;13.80;100988.00;;;;4873526;29;20057;-78
2021/10/07 10:24:32;;;;;;;38.50;4.90;;;;;14.90;101021.00;;;;4873533;29;20056;-78
2021/10/07 10:27:04;;;;;;;19.80;3.45;;;;;16.20;100861.00;;;;4871821;29;20057;-77
2021/10/07 10:29:33;;;;;;;29.70;4.57;;;;;15.40;101032.00;;;;4873154;29;20414;-77
2021/10/07 10:32:04;;;;;;;32.45;4.82;;;;;13.90;101028.00;;;;4872903;29;20056;-77
2021/10/07 10:34:47;;;;;;;39.05;4.90;;;;;13.30;101036.00;;;;4873137;29;20049;-78
2021/10/07 10:37:17;;;;;;;35.85;4.65;;;;;13.80;100994.00;;;;4873029;29;20131;-78
2021/10/07 10:39:47;;;;;;;18.85;3.83;;;;;18.40;100749.00;;;;4873164;29;20056;-77
2021/10/07 10:42:17;;;;;;;24.40;4.10;;;;;21.10;100774.00;;;;4872177;29;20139;-78
2021/10/07 10:44:51;;;;;;;22.13;4.07;;;;;22.10;100774.00;;;;4871805;29;20053;-78
2021/10/07 10:47:29;;;;;;;18.77;3.58;;;;;22.80;100818.00;;;;4872885;29;20160;-78
2021/10/07 10:50:07;;;;;;;21.25;3.45;;;;;18.60;100946.00;;;;4873423;29;20105;-77
2021/10/07 10:52:45;;;;;;;25.02;3.55;;;;;20.80;100779.00;;;;4872694;29;20055;-78
2021/10/07 10:55:23;;;;;;;28.38;4.07;;;;;22.20;100766.00;;;;4872898;29;20049;-77
2021/10/07 10:58:07;;;;;;;20.45;3.38;;;;;22.80;100749.00;;;;4872940;29;20052;-78
2021/10/07 11:00:39;;;;;;;16.38;3.13;;;;;22.70;100784.00;;;;4871435;29;20438;-79
2021/10/07 11:03:12;;;;;;;14.85;3.70;;;;;20.50;100760.00;;;;4872455;29;20061;-77
2021/10/07 11:06:02;;;;;;;14.90;3.38;;;;;22.70;100797.00;;;;4872898;29;20749;-78
2021/10/07 11:08:47;;;;;;;16.27;3.28;;;;;19.50;100862.00;;;;4872609;29;20041;-78
2021/10/07 11:11:30;;;;;;;24.75;3.85;;;;;20.70;100834.00;;;;4872087;29;20559;-78
2021/10/07 11:14:01;;;;;;;14.43;3.20;;;;;20.20;100797.00;;;;4871505;29;20470;-79
2021/10/07 11:16:33;;;;;;;15.77;3.72;;;;;20.90;100847.00;;;;4872746;29;20053;-79
2021/10/07 11:19:02;;;;;;;20.38;3.35;;;;;20.40;100850.00;;;;4872981;29;20626;-78
2021/10/07 11:21:32;;;;;;;22.63;3.50;;;;;18.70;100923.00;;;;4873089;29;20052;-78
2021/10/07 11:24:02;;;;;;;16.35;3.00;;;;;17.60;101024.00;;;;4872511;29;20380;-78
2021/10/07 11:26:32;;;;;;;24.65;3.55;;;;;16.70;101044.00;;;;4872685;29;20063;-77
2021/10/07 11:29:02;;;;;;;18.42;3.38;;;;;15.60;101004.00;;;;4872711;29;20055;-77
2021/10/07 11:31:32;;;;;;;19.60;3.50;;;;;17.70;100873.00;;;;4872213;29;20450;-78
2021/10/07 11:34:05;;;;;;;13.70;3.08;;;;;16.30;101011.00;;;;4872697;29;20155;-77
2021/10/07 11:36:34;;;;;;;10.63;2.53;;;;;21.60;100831.00;;;;4870691;29;20648;-80
2021/10/07 11:39:04;;;;;;;15.45;3.00;;;;;22.90;100812.00;;;;4872722;29;20059;-78
2021/10/07 11:41:35;;;;;;;16.38;3.08;;;;;23.70;100801.00;;;;4873403;29;20053;-77
2021/10/07 11:44:06;;;;;;;;;;;;;24.90;100779.00;;;;4874517;29;20053;-79
2021/10/07 11:46:37;;;;;;;9.48;2.80;;;;;24.70;100780.00;;;;4872590;29;19931;-78
2021/10/07 11:49:07;;;;;;;14.77;3.13;;;;;24.90;100802.00;;;;4872585;29;20052;-77
2021/10/07 11:51:39;;;;;;;15.90;2.70;;;;;25.00;100916.00;;;;4872282;29;20041;-79
2021/10/07 11:54:08;;;;;;;11.50;2.83;;;;;18.50;101003.00;;;;4872334;29;20056;-78
2021/10/07 11:56:38;;;;;;;12.18;2.78;;;;;22.70;100998.00;;;;4873434;29;20643;-77
2021/10/07 11:59:11;;;;;;;11.23;2.70;;;;;23.10;100873.00;;;;4875530;29;20072;-78
2021/10/07 12:01:41;;;;;;;11.23;2.47;;;;;20.90;101064.00;;;;4875326;29;20049;-79
2021/10/07 12:04:12;;;;;;;13.27;2.40;;;;;17.90;101048.00;;;;4875893;29;20053;-78
2021/10/07 12:06:42;;;;;;;17.52;3.13;;;;;16.70;101068.00;;;;4875628;29;20040;-77
2021/10/07 12:09:13;;;;;;;23.27;3.60;;;;;16.10;101062.00;;;;4874068;29;20077;-78
2021/10/07 12:11:44;;;;;;;28.58;4.32;;;;;15.80;101061.00;;;;4875357;29;20045;-78
2021/10/07 12:14:13;;;;;;;19.15;2.83;;;;;16.10;101065.00;;;;4875627;29;20056;-79
2021/10/07 12:16:43;;;;;;;17.35;2.97;;;;;15.90;101084.00;;;;4875858;29;20045;-78
2021/10/07 12:19:18;;;;;;;15.38;2.90;;;;;15.80;101082.00;;;;4873845;29;20057;-78
2021/10/07 12:21:56;;;;;;;11.50;2.20;;;;;15.80;101074.00;;;;4874931;29;20060;-78
2021/10/07 12:24:32;;;;;;;19.60;3.47;;;;;15.60;101075.00;;;;4874941;29;20056;-79
2021/10/07 12:27:02;;;;;;;15.63;2.45;;;;;16.10;101060.00;;;;4875455;29;20169;-77